sensor_id;sensor_type;location;lat;lon;timestamp;temperature;humidity
44359;DHT22;30077;52.474;13.326;2023-05-07T00:01:32;9.20;99.90
44359;DHT22;30077;52.474;13.326;2023-05-07T00:06:33;9.20;99.90
44359;DHT22;30077;52.474;13.326;2023-05-07T00:11:34;9.20;99.90
44359;DHT22;30077;52.474;13.326;2023-05-07T00:16:35;9.30;99.90
44359;DHT22;30077;52.474;13.326;2023-05-07T00:21:35;9.30;99.90
44359;DHT22;30077;52.474;13.326;2023-05-07T00:26:36;9.30;99.90
44359;DHT22;30077;52.474;13.326;2023-05-07T00:31:36;9.20;99.90
44359;DHT22;30077;52.474;13.326;2023-05-07T00:36:37;9.30;99.90
44359;DHT22;30077;52.474;13.326;2023-05-07T00:41:37;9.30;99.90
44359;DHT22;30077;52.474;13.326;2023-05-07T00:46:38;9.20;99.90
44359;DHT22;30077;52.474;13.326;2023-05-07T00:51:38;9.30;99.90
44359;DHT22;30077;52.474;13.326;2023-05-07T00:56:39;9.40;99.90
44359;DHT22;30077;52.474;13.326;2023-05-07T01:01:40;9.40;99.90
44359;DHT22;30077;52.474;13.326;2023-05-07T01:06:40;9.40;99.90
44359;DHT22;30077;52.474;13.326;2023-05-07T01:11:42;9.40;99.90
44359;DHT22;30077;52.474;13.326;2023-05-07T01:16:43;9.30;99.90
44359;DHT22;30077;52.474;13.326;2023-05-07T01:21:47;9.20;99.90
44359;DHT22;30077;52.474;13.326;2023-05-07T01:26:48;9.10;99.90
44359;DHT22;30077;52.474;13.326;2023-05-07T01:31:50;9.20;99.90
44359;DHT22;30077;52.474;13.326;2023-05-07T01:36:53;9.20;99.90
44359;DHT22;30077;52.474;13.326;2023-05-07T01:41:56;9.10;99.90
44359;DHT22;30077;52.474;13.326;2023-05-07T01:46:57;9.20;99.90
44359;DHT22;30077;52.474;13.326;2023-05-07T01:51:58;9.00;99.90
44359;DHT22;30077;52.474;13.326;2023-05-07T01:56:58;9.00;99.90
44359;DHT22;30077;52.474;13.326;2023-05-07T02:01:59;9.00;99.90
44359;DHT22;30077;52.474;13.326;2023-05-07T02:06:59;9.10;99.90
44359;DHT22;30077;52.474;13.326;2023-05-07T02:12:00;9.10;99.90
44359;DHT22;30077;52.474;13.326;2023-05-07T02:17:00;9.10;99.90
44359;DHT22;30077;52.474;13.326;2023-05-07T02:22:01;9.20;99.90
44359;DHT22;30077;52.474;13.326;2023-05-07T02:27:01;9.10;99.90
44359;DHT22;30077;52.474;13.326;2023-05-07T02:32:03;9.10;99.90
44359;DHT22;30077;52.474;13.326;2023-05-07T02:37:05;9.10;99.90
44359;DHT22;30077;52.474;13.326;2023-05-07T02:42:05;9.20;99.90
44359;DHT22;30077;52.474;13.326;2023-05-07T02:47:06;9.20;99.90
44359;DHT22;30077;52.474;13.326;2023-05-07T02:52:08;9.10;99.90
44359;DHT22;30077;52.474;13.326;2023-05-07T02:57:09;9.10;99.90
44359;DHT22;30077;52.474;13.326;2023-05-07T03:02:09;9.00;99.90
44359;DHT22;30077;52.474;13.326;2023-05-07T03:07:10;9.10;99.90
44359;DHT22;30077;52.474;13.326;2023-05-07T03:12:11;9.10;99.90
44359;DHT22;30077;52.474;13.326;2023-05-07T03:17:11;9.10;99.90
44359;DHT22;30077;52.474;13.326;2023-05-07T03:22:12;9.10;99.90
44359;DHT22;30077;52.474;13.326;2023-05-07T03:27:12;9.00;99.90
44359;DHT22;30077;52.474;13.326;2023-05-07T03:32:13;9.10;99.90
44359;DHT22;30077;52.474;13.326;2023-05-07T03:37:13;9.10;99.90
44359;DHT22;30077;52.474;13.326;2023-05-07T03:42:14;9.10;99.90
44359;DHT22;30077;52.474;13.326;2023-05-07T03:47:15;9.00;99.90
44359;DHT22;30077;52.474;13.326;2023-05-07T03:52:16;9.10;99.90
44359;DHT22;30077;52.474;13.326;2023-05-07T03:57:16;9.10;99.90
44359;DHT22;30077;52.474;13.326;2023-05-07T04:02:16;9.20;99.90
44359;DHT22;30077;52.474;13.326;2023-05-07T04:07:17;9.10;99.90
44359;DHT22;30077;52.474;13.326;2023-05-07T04:12:17;9.00;99.90
44359;DHT22;30077;52.474;13.326;2023-05-07T04:17:18;8.90;99.90
44359;DHT22;30077;52.474;13.326;2023-05-07T04:22:18;9.00;99.90
44359;DHT22;30077;52.474;13.326;2023-05-07T04:27:19;9.00;99.90
44359;DHT22;30077;52.474;13.326;2023-05-07T04:32:20;9.10;99.90
44359;DHT22;30077;52.474;13.326;2023-05-07T04:37:21;9.10;99.90
44359;DHT22;30077;52.474;13.326;2023-05-07T04:42:21;9.10;99.90
44359;DHT22;30077;52.474;13.326;2023-05-07T04:47:22;9.20;99.90
44359;DHT22;30077;52.474;13.326;2023-05-07T04:52:23;9.20;99.90
44359;DHT22;30077;52.474;13.326;2023-05-07T04:57:24;9.30;99.90
44359;DHT22;30077;52.474;13.326;2023-05-07T05:02:25;9.50;99.90
44359;DHT22;30077;52.474;13.326;2023-05-07T05:07:26;9.50;99.90
44359;DHT22;30077;52.474;13.326;2023-05-07T05:12:26;9.40;99.90
44359;DHT22;30077;52.474;13.326;2023-05-07T05:17:27;9.60;99.90
44359;DHT22;30077;52.474;13.326;2023-05-07T05:22:27;9.70;99.90
44359;DHT22;30077;52.474;13.326;2023-05-07T05:27:30;9.90;99.90
44359;DHT22;30077;52.474;13.326;2023-05-07T05:32:30;10.00;99.90
44359;DHT22;30077;52.474;13.326;2023-05-07T05:37:32;9.70;99.90
44359;DHT22;30077;52.474;13.326;2023-05-07T05:42:34;10.00;99.90
44359;DHT22;30077;52.474;13.326;2023-05-07T05:47:34;10.20;99.90
44359;DHT22;30077;52.474;13.326;2023-05-07T05:52:35;10.30;99.90
44359;DHT22;30077;52.474;13.326;2023-05-07T05:57:35;10.20;99.90
44359;DHT22;30077;52.474;13.326;2023-05-07T06:02:36;10.30;99.90
44359;DHT22;30077;52.474;13.326;2023-05-07T06:07:36;10.30;99.90
44359;DHT22;30077;52.474;13.326;2023-05-07T06:12:37;10.40;99.90
44359;DHT22;30077;52.474;13.326;2023-05-07T06:17:37;10.50;99.90
44359;DHT22;30077;52.474;13.326;2023-05-07T06:22:38;10.30;99.90
44359;DHT22;30077;52.474;13.326;2023-05-07T06:27:38;10.10;99.90
44359;DHT22;30077;52.474;13.326;2023-05-07T06:32:40;10.50;99.90
44359;DHT22;30077;52.474;13.326;2023-05-07T06:37:41;10.70;99.90
44359;DHT22;30077;52.474;13.326;2023-05-07T06:42:45;11.00;99.90
44359;DHT22;30077;52.474;13.326;2023-05-07T06:47:45;10.80;99.90
44359;DHT22;30077;52.474;13.326;2023-05-07T06:52:46;10.70;99.90
44359;DHT22;30077;52.474;13.326;2023-05-07T06:57:47;10.80;99.90
44359;DHT22;30077;52.474;13.326;2023-05-07T07:02:47;11.20;99.90
44359;DHT22;30077;52.474;13.326;2023-05-07T07:07:48;11.30;99.90
44359;DHT22;30077;52.474;13.326;2023-05-07T07:12:53;10.90;99.90
44359;DHT22;30077;52.474;13.326;2023-05-07T07:17:53;11.00;99.90
44359;DHT22;30077;52.474;13.326;2023-05-07T07:22:54;11.40;99.90
44359;DHT22;30077;52.474;13.326;2023-05-07T07:27:54;11.90;99.90
44359;DHT22;30077;52.474;13.326;2023-05-07T07:32:55;11.80;99.90
44359;DHT22;30077;52.474;13.326;2023-05-07T07:38:00;12.20;99.90
44359;DHT22;30077;52.474;13.326;2023-05-07T07:43:01;12.40;99.90
44359;DHT22;30077;52.474;13.326;2023-05-07T07:48:02;12.10;99.90
44359;DHT22;30077;52.474;13.326;2023-05-07T07:53:02;12.40;99.90
44359;DHT22;30077;52.474;13.326;2023-05-07T07:58:03;12.30;99.90
44359;DHT22;30077;52.474;13.326;2023-05-07T08:03:03;12.60;99.90
44359;DHT22;30077;52.474;13.326;2023-05-07T08:08:05;12.20;99.90
44359;DHT22;30077;52.474;13.326;2023-05-07T08:13:06;11.80;99.90
44359;DHT22;30077;52.474;13.326;2023-05-07T08:18:06;11.80;99.90
44359;DHT22;30077;52.474;13.326;2023-05-07T08:23:07;11.90;99.90
44359;DHT22;30077;52.474;13.326;2023-05-07T08:28:08;12.00;99.90
44359;DHT22;30077;52.474;13.326;2023-05-07T08:33:09;12.80;99.90
44359;DHT22;30077;52.474;13.326;2023-05-07T08:38:10;12.80;99.90
44359;DHT22;30077;52.474;13.326;2023-05-07T08:43:13;12.70;99.90
44359;DHT22;30077;52.474;13.326;2023-05-07T08:48:16;13.00;99.90
44359;DHT22;30077;52.474;13.326;2023-05-07T08:53:17;13.00;99.90
44359;DHT22;30077;52.474;13.326;2023-05-07T08:58:18;13.00;99.90
44359;DHT22;30077;52.474;13.326;2023-05-07T09:03:18;13.00;99.90
44359;DHT22;30077;52.474;13.326;2023-05-07T09:08:24;13.20;99.90
44359;DHT22;30077;52.474;13.326;2023-05-07T09:13:28;13.60;99.90
44359;DHT22;30077;52.474;13.326;2023-05-07T09:18:28;13.60;99.90
44359;DHT22;30077;52.474;13.326;2023-05-07T09:23:29;13.80;99.90
44359;DHT22;30077;52.474;13.326;2023-05-07T09:28:29;13.30;99.90
44359;DHT22;30077;52.474;13.326;2023-05-07T09:33:30;13.30;99.90
44359;DHT22;30077;52.474;13.326;2023-05-07T09:38:31;13.30;99.90
44359;DHT22;30077;52.474;13.326;2023-05-07T09:43:34;13.40;99.90
44359;DHT22;30077;52.474;13.326;2023-05-07T09:48:40;13.70;99.90
44359;DHT22;30077;52.474;13.326;2023-05-07T09:53:40;14.00;99.90
44359;DHT22;30077;52.474;13.326;2023-05-07T09:58:43;14.50;99.90
44359;DHT22;30077;52.474;13.326;2023-05-07T10:03:44;14.40;99.90
44359;DHT22;30077;52.474;13.326;2023-05-07T10:08:46;14.20;99.90
44359;DHT22;30077;52.474;13.326;2023-05-07T10:13:48;14.20;99.90
44359;DHT22;30077;52.474;13.326;2023-05-07T10:18:49;14.80;99.90
44359;DHT22;30077;52.474;13.326;2023-05-07T10:23:57;15.40;99.90
44359;DHT22;30077;52.474;13.326;2023-05-07T10:29:07;14.90;99.90
44359;DHT22;30077;52.474;13.326;2023-05-07T10:34:16;15.40;99.90
44359;DHT22;30077;52.474;13.326;2023-05-07T10:39:19;15.70;99.90
44359;DHT22;30077;52.474;13.326;2023-05-07T10:44:27;15.30;99.90
44359;DHT22;30077;52.474;13.326;2023-05-07T10:49:28;15.70;99.90
44359;DHT22;30077;52.474;13.326;2023-05-07T10:54:29;16.00;99.90
44359;DHT22;30077;52.474;13.326;2023-05-07T10:59:33;15.80;99.90
44359;DHT22;30077;52.474;13.326;2023-05-07T11:04:35;15.70;99.90
44359;DHT22;30077;52.474;13.326;2023-05-07T11:09:55;15.30;99.90
44359;DHT22;30077;52.474;13.326;2023-05-07T11:14:56;15.10;99.90
44359;DHT22;30077;52.474;13.326;2023-05-07T11:19:57;15.10;99.90
44359;DHT22;30077;52.474;13.326;2023-05-07T11:25:02;15.50;99.90
44359;DHT22;30077;52.474;13.326;2023-05-07T11:30:03;15.50;99.90
44359;DHT22;30077;52.474;13.326;2023-05-07T11:35:04;15.40;99.90
44359;DHT22;30077;52.474;13.326;2023-05-07T11:40:07;14.90;99.90
44359;DHT22;30077;52.474;13.326;2023-05-07T11:45:08;15.30;99.90
44359;DHT22;30077;52.474;13.326;2023-05-07T11:50:08;15.30;99.90
44359;DHT22;30077;52.474;13.326;2023-05-07T11:55:10;15.60;99.90
44359;DHT22;30077;52.474;13.326;2023-05-07T12:00:11;16.00;99.90
44359;DHT22;30077;52.474;13.326;2023-05-07T12:05:13;16.80;99.90
44359;DHT22;30077;52.474;13.326;2023-05-07T12:10:14;17.50;99.90
44359;DHT22;30077;52.474;13.326;2023-05-07T12:15:17;17.60;99.90
44359;DHT22;30077;52.474;13.326;2023-05-07T12:20:22;17.20;99.60
44359;DHT22;30077;52.474;13.326;2023-05-07T12:25:23;16.40;99.90
44359;DHT22;30077;52.474;13.326;2023-05-07T12:30:24;16.60;99.90
44359;DHT22;30077;52.474;13.326;2023-05-07T12:35:29;16.60;99.90
44359;DHT22;30077;52.474;13.326;2023-05-07T12:40:41;16.90;99.90
44359;DHT22;30077;52.474;13.326;2023-05-07T12:45:42;16.80;99.90
44359;DHT22;30077;52.474;13.326;2023-05-07T12:50:43;16.20;99.90
44359;DHT22;30077;52.474;13.326;2023-05-07T12:55:52;15.60;99.90
44359;DHT22;30077;52.474;13.326;2023-05-07T13:00:53;15.80;99.90
44359;DHT22;30077;52.474;13.326;2023-05-07T13:05:55;15.90;99.90
44359;DHT22;30077;52.474;13.326;2023-05-07T13:11:00;15.90;99.90
44359;DHT22;30077;52.474;13.326;2023-05-07T13:16:05;16.10;99.90
44359;DHT22;30077;52.474;13.326;2023-05-07T13:21:06;16.00;99.90
44359;DHT22;30077;52.474;13.326;2023-05-07T13:26:06;15.90;99.90
44359;DHT22;30077;52.474;13.326;2023-05-07T13:31:07;15.90;99.90
44359;DHT22;30077;52.474;13.326;2023-05-07T13:36:07;16.10;99.90
44359;DHT22;30077;52.474;13.326;2023-05-07T13:41:08;16.70;99.90
44359;DHT22;30077;52.474;13.326;2023-05-07T13:46:09;17.40;98.20
44359;DHT22;30077;52.474;13.326;2023-05-07T13:51:09;17.40;97.60
44359;DHT22;30077;52.474;13.326;2023-05-07T13:56:10;17.80;97.00
44359;DHT22;30077;52.474;13.326;2023-05-07T14:01:11;17.80;96.90
44359;DHT22;30077;52.474;13.326;2023-05-07T14:06:11;17.70;96.70
44359;DHT22;30077;52.474;13.326;2023-05-07T14:11:11;17.80;96.60
44359;DHT22;30077;52.474;13.326;2023-05-07T14:16:12;17.40;96.40
44359;DHT22;30077;52.474;13.326;2023-05-07T14:21:12;17.10;97.20
44359;DHT22;30077;52.474;13.326;2023-05-07T14:26:14;16.50;97.60
44359;DHT22;30077;52.474;13.326;2023-05-07T14:31:14;16.50;98.20
44359;DHT22;30077;52.474;13.326;2023-05-07T14:36:16;16.40;98.90
44359;DHT22;30077;52.474;13.326;2023-05-07T14:41:16;16.30;98.90
44359;DHT22;30077;52.474;13.326;2023-05-07T14:46:18;16.20;98.80
44359;DHT22;30077;52.474;13.326;2023-05-07T14:51:18;16.20;97.50
44359;DHT22;30077;52.474;13.326;2023-05-07T14:56:19;16.40;98.10
44359;DHT22;30077;52.474;13.326;2023-05-07T15:01:20;16.30;98.90
44359;DHT22;30077;52.474;13.326;2023-05-07T15:06:21;16.50;98.80
44359;DHT22;30077;52.474;13.326;2023-05-07T15:11:21;16.80;97.60
44359;DHT22;30077;52.474;13.326;2023-05-07T15:16:22;17.40;97.00
44359;DHT22;30077;52.474;13.326;2023-05-07T15:21:23;17.70;96.80
44359;DHT22;30077;52.474;13.326;2023-05-07T15:26:23;17.80;96.50
44359;DHT22;30077;52.474;13.326;2023-05-07T15:31:24;18.10;95.90
44359;DHT22;30077;52.474;13.326;2023-05-07T15:36:25;18.20;95.40
44359;DHT22;30077;52.474;13.326;2023-05-07T15:41:25;18.10;95.30
44359;DHT22;30077;52.474;13.326;2023-05-07T15:46:26;18.00;94.90
44359;DHT22;30077;52.474;13.326;2023-05-07T15:51:26;18.10;95.10
44359;DHT22;30077;52.474;13.326;2023-05-07T15:56:28;18.10;95.00
44359;DHT22;30077;52.474;13.326;2023-05-07T16:01:28;18.10;94.70
44359;DHT22;30077;52.474;13.326;2023-05-07T16:06:29;17.70;95.20
44359;DHT22;30077;52.474;13.326;2023-05-07T16:11:31;17.80;95.20
44359;DHT22;30077;52.474;13.326;2023-05-07T16:16:33;17.90;95.70
44359;DHT22;30077;52.474;13.326;2023-05-07T16:21:33;17.70;96.20
44359;DHT22;30077;52.474;13.326;2023-05-07T16:26:35;18.00;95.80
44359;DHT22;30077;52.474;13.326;2023-05-07T16:31:37;18.00;94.80
44359;DHT22;30077;52.474;13.326;2023-05-07T16:36:37;17.50;94.70
44359;DHT22;30077;52.474;13.326;2023-05-07T16:41:38;17.10;95.70
44359;DHT22;30077;52.474;13.326;2023-05-07T16:46:38;17.30;95.80
44359;DHT22;30077;52.474;13.326;2023-05-07T16:51:39;17.60;94.80
44359;DHT22;30077;52.474;13.326;2023-05-07T16:56:42;18.20;94.70
44359;DHT22;30077;52.474;13.326;2023-05-07T17:01:43;18.10;93.10
44359;DHT22;30077;52.474;13.326;2023-05-07T17:06:43;17.10;94.40
44359;DHT22;30077;52.474;13.326;2023-05-07T17:11:45;16.30;95.70
44359;DHT22;30077;52.474;13.326;2023-05-07T17:16:45;16.00;96.70
44359;DHT22;30077;52.474;13.326;2023-05-07T17:21:46;15.80;97.30
44359;DHT22;30077;52.474;13.326;2023-05-07T17:26:47;15.70;97.80
44359;DHT22;30077;52.474;13.326;2023-05-07T17:31:47;15.80;97.70
44359;DHT22;30077;52.474;13.326;2023-05-07T17:36:48;15.60;97.90
44359;DHT22;30077;52.474;13.326;2023-05-07T17:41:48;15.30;98.50
44359;DHT22;30077;52.474;13.326;2023-05-07T17:46:49;15.00;99.40
44359;DHT22;30077;52.474;13.326;2023-05-07T17:51:49;14.80;99.60
44359;DHT22;30077;52.474;13.326;2023-05-07T17:56:50;14.80;99.90
44359;DHT22;30077;52.474;13.326;2023-05-07T18:01:51;14.70;99.90
44359;DHT22;30077;52.474;13.326;2023-05-07T18:06:51;14.60;99.90
44359;DHT22;30077;52.474;13.326;2023-05-07T18:11:52;14.50;99.90
44359;DHT22;30077;52.474;13.326;2023-05-07T18:16:52;14.30;99.90
44359;DHT22;30077;52.474;13.326;2023-05-07T18:21:53;14.10;99.90
44359;DHT22;30077;52.474;13.326;2023-05-07T18:26:56;13.90;99.90
44359;DHT22;30077;52.474;13.326;2023-05-07T18:31:56;13.80;99.90
44359;DHT22;30077;52.474;13.326;2023-05-07T18:36:57;13.60;99.90
44359;DHT22;30077;52.474;13.326;2023-05-07T18:41:57;13.40;99.90
44359;DHT22;30077;52.474;13.326;2023-05-07T18:46:59;13.40;99.90
44359;DHT22;30077;52.474;13.326;2023-05-07T18:51:59;13.40;99.90
44359;DHT22;30077;52.474;13.326;2023-05-07T18:57:00;13.30;99.90
44359;DHT22;30077;52.474;13.326;2023-05-07T19:02:01;13.20;99.90
44359;DHT22;30077;52.474;13.326;2023-05-07T19:07:01;13.20;99.90
44359;DHT22;30077;52.474;13.326;2023-05-07T19:12:02;13.10;99.90
44359;DHT22;30077;52.474;13.326;2023-05-07T19:17:02;13.10;99.90
44359;DHT22;30077;52.474;13.326;2023-05-07T19:22:03;13.10;99.90
44359;DHT22;30077;52.474;13.326;2023-05-07T19:27:03;13.20;99.90
44359;DHT22;30077;52.474;13.326;2023-05-07T19:32:05;13.20;99.90
44359;DHT22;30077;52.474;13.326;2023-05-07T19:37:05;13.10;99.90
44359;DHT22;30077;52.474;13.326;2023-05-07T19:42:06;13.10;99.90
44359;DHT22;30077;52.474;13.326;2023-05-07T19:47:06;13.00;99.90
44359;DHT22;30077;52.474;13.326;2023-05-07T19:52:08;13.00;99.90
44359;DHT22;30077;52.474;13.326;2023-05-07T19:57:09;12.90;99.90
44359;DHT22;30077;52.474;13.326;2023-05-07T20:02:09;12.90;99.90
44359;DHT22;30077;52.474;13.326;2023-05-07T20:07:11;12.90;99.90
44359;DHT22;30077;52.474;13.326;2023-05-07T20:12:11;12.70;99.90
44359;DHT22;30077;52.474;13.326;2023-05-07T20:17:12;12.50;99.90
44359;DHT22;30077;52.474;13.326;2023-05-07T20:22:12;12.30;99.90
44359;DHT22;30077;52.474;13.326;2023-05-07T20:27:13;12.20;99.90
44359;DHT22;30077;52.474;13.326;2023-05-07T20:32:16;12.00;99.90
44359;DHT22;30077;52.474;13.326;2023-05-07T20:37:16;11.90;99.90
44359;DHT22;30077;52.474;13.326;2023-05-07T20:42:17;11.80;99.90
44359;DHT22;30077;52.474;13.326;2023-05-07T20:47:17;11.70;99.90
44359;DHT22;30077;52.474;13.326;2023-05-07T20:52:18;11.60;99.90
44359;DHT22;30077;52.474;13.326;2023-05-07T20:57:21;11.40;99.90
44359;DHT22;30077;52.474;13.326;2023-05-07T21:02:21;11.40;99.90
44359;DHT22;30077;52.474;13.326;2023-05-07T21:07:22;11.20;99.90
44359;DHT22;30077;52.474;13.326;2023-05-07T21:12:22;11.10;99.90
44359;DHT22;30077;52.474;13.326;2023-05-07T21:17:23;11.10;99.90
44359;DHT22;30077;52.474;13.326;2023-05-07T21:22:23;11.10;99.90
44359;DHT22;30077;52.474;13.326;2023-05-07T21:27:24;10.90;99.90
44359;DHT22;30077;52.474;13.326;2023-05-07T21:32:24;10.80;99.90
44359;DHT22;30077;52.474;13.326;2023-05-07T21:37:25;10.70;99.90
44359;DHT22;30077;52.474;13.326;2023-05-07T21:42:26;10.70;99.90
44359;DHT22;30077;52.474;13.326;2023-05-07T21:47:26;10.60;99.90
44359;DHT22;30077;52.474;13.326;2023-05-07T21:52:27;10.50;99.90
44359;DHT22;30077;52.474;13.326;2023-05-07T21:57:27;10.50;99.90
44359;DHT22;30077;52.474;13.326;2023-05-07T22:02:28;10.40;99.90
44359;DHT22;30077;52.474;13.326;2023-05-07T22:07:28;10.30;99.90
44359;DHT22;30077;52.474;13.326;2023-05-07T22:12:29;10.30;99.90
44359;DHT22;30077;52.474;13.326;2023-05-07T22:17:29;10.20;99.90
44359;DHT22;30077;52.474;13.326;2023-05-07T22:22:30;10.20;99.90
44359;DHT22;30077;52.474;13.326;2023-05-07T22:27:30;10.20;99.90
44359;DHT22;30077;52.474;13.326;2023-05-07T22:32:31;10.20;99.90
44359;DHT22;30077;52.474;13.326;2023-05-07T22:37:32;10.00;99.90
44359;DHT22;30077;52.474;13.326;2023-05-07T22:42:32;10.00;99.90
44359;DHT22;30077;52.474;13.326;2023-05-07T22:47:33;10.00;99.90
44359;DHT22;30077;52.474;13.326;2023-05-07T22:52:33;10.00;99.90
44359;DHT22;30077;52.474;13.326;2023-05-07T22:57:34;9.90;99.90
44359;DHT22;30077;52.474;13.326;2023-05-07T23:02:34;9.80;99.90
44359;DHT22;30077;52.474;13.326;2023-05-07T23:07:35;9.80;99.90
44359;DHT22;30077;52.474;13.326;2023-05-07T23:12:36;9.70;99.90
44359;DHT22;30077;52.474;13.326;2023-05-07T23:17:36;9.60;99.90
44359;DHT22;30077;52.474;13.326;2023-05-07T23:22:37;9.50;99.90
44359;DHT22;30077;52.474;13.326;2023-05-07T23:27:37;9.50;99.90
44359;DHT22;30077;52.474;13.326;2023-05-07T23:32:38;9.50;99.90
44359;DHT22;30077;52.474;13.326;2023-05-07T23:37:38;9.40;99.90
44359;DHT22;30077;52.474;13.326;2023-05-07T23:42:39;9.30;99.90
44359;DHT22;30077;52.474;13.326;2023-05-07T23:47:39;9.30;99.90
44359;DHT22;30077;52.474;13.326;2023-05-07T23:52:41;9.20;99.90
44359;DHT22;30077;52.474;13.326;2023-05-07T23:57:41;9.20;99.90
